Time;durP1;ratioP1;P1;durP2;ratioP2;P2;SDS_P1;SDS_P2;PMS_P1;PMS_P2;Temp;Humidity;BMP_temperature;BMP_pressure;BME280_temperature;BME280_humidity;BME280_pressure;Samples;Min_cycle;Max_cycle;Signal;HPM_P1;HPM_P2
2023/07/05 00:06:57;;;;;;;0.63;0.50;;;;;;;;;;20885309;28;20218;-80
2023/07/05 00:16:58;;;;;;;0.65;0.47;;;;;;;;;;20923730;28;20240;-80
2023/07/05 00:27:00;;;;;;;0.75;0.40;;;;;;;;;;20955837;28;20288;-79
2023/07/05 00:37:02;;;;;;;0.95;0.47;;;;;;;;;;20907235;28;20235;-80
2023/07/05 00:47:19;;;;;;;0.85;0.47;;;21.90;99.90;;;;;;20929856;28;20233;-79
2023/07/05 00:57:24;;;;;;;0.60;0.40;;;;;;;;;;20928195;28;20237;-79
2023/07/05 01:07:25;;;;;;;0.67;0.30;;;;;;;;;;20935535;28;20350;-79
2023/07/05 01:18:09;;;;;;;1.23;0.40;;;21.40;99.90;;;;;;20932927;28;20237;-80
2023/07/05 01:28:35;;;;;;;0.73;0.40;;;21.40;99.90;;;;;;20954805;28;20267;-79
2023/07/05 01:38:36;;;;;;;0.63;0.30;;;;;;;;;;20975741;28;20241;-80
2023/07/05 01:49:07;;;;;;;0.63;0.40;;;;;;;;;;20920456;28;20235;-80
2023/07/05 01:59:10;;;;;;;0.67;0.40;;;;;;;;;;20905180;28;20238;-79
2023/07/05 02:09:12;;;;;;;0.60;0.40;;;;;;;;;;20929172;28;20369;-80
2023/07/05 02:19:14;;;;;;;0.60;0.37;;;;;;;;;;20942841;28;20248;-81
2023/07/05 02:29:16;;;;;;;0.50;0.40;;;;;;;;;;20939210;28;20232;-81
2023/07/05 02:39:18;;;;;;;1.53;0.50;;;;;;;;;;20949458;28;20240;-81
2023/07/05 02:49:20;;;;;;;0.87;0.50;;;;;;;;;;20887031;28;20220;-78
2023/07/05 02:59:22;;;;;;;1.10;0.40;;;20.60;99.90;;;;;;20953234;28;20220;-81
2023/07/05 03:09:24;;;;;;;1.57;0.33;;;;;;;;;;20901592;28;20253;-79
2023/07/05 03:19:26;;;;;;;1.27;0.40;;;;;;;;;;20927567;28;20236;-81
2023/07/05 03:29:27;;;;;;;1.03;0.50;;;;;;;;;;20933302;28;20747;-79
2023/07/05 03:39:29;;;;;;;0.37;0.30;;;20.40;99.90;;;;;;20917605;28;20220;-80
2023/07/05 03:49:33;;;;;;;1.10;0.50;;;;;;;;;;20905747;28;20223;-81
2023/07/05 03:59:35;;;;;;;0.77;0.40;;;;;;;;;;20921938;28;20286;-80
2023/07/05 04:09:37;;;;;;;0.90;0.50;;;;;;;;;;20890936;28;20219;-79
2023/07/05 04:19:38;;;;;;;1.93;0.60;;;;;;;;;;20928922;28;20636;-80
2023/07/05 04:29:40;;;;;;;0.60;0.40;;;;;;;;;;20928386;28;20232;-79
2023/07/05 04:39:42;;;;;;;1.50;0.50;;;;;;;;;;20953232;28;20240;-79
2023/07/05 04:49:46;;;;;;;1.27;0.40;;;;;;;;;;20928300;28;20259;-78
2023/07/05 04:59:51;;;;;;;0.63;0.40;;;;;;;;;;20940567;28;20257;-79
2023/07/05 05:09:53;;;;;;;0.83;0.40;;;;;;;;;;20962808;28;20632;-79
2023/07/05 05:19:54;;;;;;;1.73;0.60;;;;;;;;;;20936539;28;20248;-78
2023/07/05 05:29:56;;;;;;;1.17;0.73;;;;;;;;;;20967850;28;20219;-79
2023/07/05 05:39:58;;;;;;;1.00;0.60;;;;;;;;;;20936045;28;20291;-78
2023/07/05 05:50:00;;;;;;;1.60;0.70;;;;;;;;;;20938802;28;20227;-78
2023/07/05 06:00:03;;;;;;;1.50;0.60;;;;;;;;;;20933417;28;20254;-78
2023/07/05 06:10:07;;;;;;;0.87;0.50;;;;;;;;;;20960262;28;20335;-79
2023/07/05 06:20:16;;;;;;;1.00;0.60;;;;;;;;;;20940580;28;20269;-79
2023/07/05 06:30:17;;;;;;;3.03;0.80;;;;;;;;;;20955801;28;20211;-79
2023/07/05 06:40:19;;;;;;;1.13;0.67;;;;;;;;;;20961789;28;20237;-78
2023/07/05 06:50:21;;;;;;;2.40;1.10;;;;;;;;;;20936566;28;20370;-80
2023/07/05 07:00:23;;;;;;;1.70;1.00;;;;;;;;;;20963099;28;20228;-80
2023/07/05 07:10:24;;;;;;;1.73;1.00;;;;;;;;;;20943277;28;20282;-80
2023/07/05 07:20:26;;;;;;;2.37;1.00;;;;;;;;;;20946904;28;20251;-81
2023/07/05 07:30:28;;;;;;;2.70;0.93;;;;;;;;;;20958145;28;20227;-81
2023/07/05 07:40:29;;;;;;;1.60;1.07;;;;;;;;;;20924925;28;20286;-80
2023/07/05 07:50:31;;;;;;;1.77;1.00;;;;;;;;;;20942648;28;20271;-81
2023/07/05 08:00:33;;;;;;;2.77;0.90;;;;;;;;;;20955531;28;20240;-80
2023/07/05 08:10:35;;;;;;;1.07;0.60;;;;;;;;;;20917273;28;20268;-80
2023/07/05 08:20:38;;;;;;;2.27;1.00;;;;;;;;;;20955524;28;20722;-80
2023/07/05 08:30:40;;;;;;;3.17;0.93;;;;;;;;;;20938173;28;20224;-78
2023/07/05 08:40:43;;;;;;;1.43;0.80;;;;;;;;;;20931708;28;20228;-78
2023/07/05 08:50:49;;;;;;;1.30;0.70;;;;;;;;;;20940584;28;20240;-81
2023/07/05 09:00:54;;;;;;;1.23;0.83;;;;;;;;;;20973429;28;20232;-81
2023/07/05 09:11:09;;;;;;;1.67;0.63;;;22.10;99.90;;;;;;20978096;28;20217;-79
2023/07/05 09:21:14;;;;;;;2.43;0.70;;;;;;;;;;20947452;28;20262;-79
2023/07/05 09:31:17;;;;;;;0.97;0.70;;;;;;;;;;20978208;28;20216;-81
2023/07/05 09:41:33;;;;;;;3.33;1.00;;;22.60;98.30;;;;;;20910855;28;20222;-81
2023/07/05 09:51:38;;;;;;;1.40;0.70;;;;;;;;;;20926988;28;20281;-80
2023/07/05 10:01:46;;;;;;;1.02;0.50;;;;;;;;;;20927880;28;20275;-81
2023/07/05 10:11:53;;;;;;;0.30;0.30;;;;;;;;;;20958990;28;20225;-82
2023/07/05 10:22:04;;;;;;;1.35;0.70;;;;;;;;;;20905868;28;20231;-81
2023/07/05 10:32:15;;;;;;;0.90;0.40;;;23.40;91.30;;;;;;20960329;28;20252;-80
2023/07/05 10:42:18;;;;;;;4.47;0.70;;;;;;;;;;20909862;28;20237;-80
2023/07/05 10:52:22;;;;;;;2.17;0.68;;;;;;;;;;20953835;28;20235;-78
2023/07/05 11:02:27;;;;;;;0.85;0.50;;;;;;;;;;20932422;28;20283;-80
2023/07/05 11:12:30;;;;;;;0.70;0.43;;;24.60;81.50;;;;;;20951887;28;20246;-81
2023/07/05 11:22:39;;;;;;;1.25;0.60;;;24.50;87.50;;;;;;20940776;28;20231;-79
2023/07/05 11:33:01;;;;;;;1.95;0.40;;;;;;;;;;20942898;28;20207;-83
2023/07/05 11:43:22;;;;;;;1.48;0.60;;;;;;;;;;20924265;28;20249;-82
2023/07/05 11:53:26;;;;;;;2.00;0.60;;;;;;;;;;20917608;28;20218;-82
2023/07/05 12:03:48;;;;;;;0.80;0.50;;;;;;;;;;20905022;28;20303;-81
2023/07/05 12:13:50;;;;;;;1.25;0.65;;;;;;;;;;21002815;28;20219;-82
2023/07/05 12:23:55;;;;;;;0.90;0.60;;;;;;;;;;20929500;28;20274;-82
2023/07/05 12:33:58;;;;;;;3.63;0.55;;;;;;;;;;20917083;28;20287;-84
2023/07/05 12:44:01;;;;;;;1.00;0.50;;;;;;;;;;20946634;28;20240;-81
2023/07/05 12:54:03;;;;;;;4.40;0.93;;;;;;;;;;20894053;28;20235;-83
2023/07/05 13:04:17;;;;;;;1.00;0.52;;;;;;;;;;20933988;28;20278;-83
2023/07/05 13:14:30;;;;;;;1.60;0.60;;;;;;;;;;20959972;28;20232;-80
2023/07/05 13:24:32;;;;;;;3.13;0.60;;;;;;;;;;20921493;28;20581;-82
2023/07/05 13:34:34;;;;;;;2.97;0.70;;;;;;;;;;20907707;28;20284;-84
2023/07/05 13:44:36;;;;;;;1.50;0.60;;;;;;;;;;20918391;28;20281;-83
2023/07/05 13:54:38;;;;;;;0.88;0.47;;;;;;;;;;20974539;28;20720;-83
2023/07/05 14:04:41;;;;;;;1.95;0.50;;;;;;;;;;20952678;28;20231;-83
2023/07/05 14:14:43;;;;;;;2.13;1.10;;;;;;;;;;20986788;28;20271;-83
2023/07/05 14:24:45;;;;;;;1.70;0.98;;;;;;;;;;20921324;28;20663;-82
2023/07/05 14:34:47;;;;;;;3.65;0.65;;;;;;;;;;20967493;28;20207;-83
2023/07/05 14:44:49;;;;;;;2.00;0.63;;;;;;;;;;20958194;28;20709;-84
2023/07/05 14:54:51;;;;;;;2.38;0.63;;;;;;;;;;20927214;28;20236;-83
2023/07/05 15:04:52;;;;;;;2.45;0.60;;;;;;;;;;20929571;28;20237;-82
2023/07/05 15:14:54;;;;;;;0.50;0.40;;;;;;;;;;20894036;28;20560;-82
2023/07/05 15:24:56;;;;;;;0.85;0.52;;;;;;;;;;20922224;28;20631;-82
2023/07/05 15:34:58;;;;;;;0.95;0.70;;;;;;;;;;20931988;28;20256;-82
2023/07/05 15:45:00;;;;;;;1.45;0.60;;;;;;;;;;20919887;28;20225;-84
2023/07/05 15:55:02;;;;;;;0.65;0.40;;;;;;;;;;20900612;28;20227;-83
2023/07/05 16:05:10;;;;;;;1.23;0.63;;;;;;;;;;20901506;28;20227;-84
2023/07/05 16:15:11;;;;;;;1.05;0.50;;;;;;;;;;20896924;28;20242;-82
2023/07/05 16:25:19;;;;;;;1.35;0.60;;;;;;;;;;20932751;28;20208;-82
2023/07/05 16:35:21;;;;;;;1.23;0.70;;;;;;;;;;20962973;28;20249;-81
2023/07/05 16:45:23;;;;;;;1.35;0.57;;;;;;;;;;20934187;28;20224;-82
2023/07/05 16:55:25;;;;;;;1.25;0.70;;;;;;;;;;20923685;28;20232;-82
2023/07/05 17:05:27;;;;;;;0.93;0.40;;;;;;;;;;20914623;28;20237;-82
2023/07/05 17:15:29;;;;;;;0.75;0.50;;;;;;;;;;20904988;28;20224;-79
2023/07/05 17:25:31;;;;;;;1.40;0.50;;;;;;;;;;20914802;28;20273;-81
2023/07/05 17:35:33;;;;;;;0.73;0.40;;;;;;;;;;20922603;28;20230;-84
2023/07/05 17:45:35;;;;;;;0.70;0.43;;;;;;;;;;20877124;28;20263;-82
2023/07/05 17:55:37;;;;;;;0.80;0.40;;;;;;;;;;20935645;28;20272;-82
2023/07/05 18:05:40;;;;;;;1.02;0.60;;;;;;;;;;20934951;28;20226;-81
2023/07/05 18:15:46;;;;;;;0.82;0.55;;;;;;;;;;20892819;28;20226;-83
2023/07/05 18:25:48;;;;;;;0.65;0.40;;;;;;;;;;20898615;28;20643;-82
2023/07/05 18:35:51;;;;;;;0.60;0.40;;;;;;;;;;20896962;28;20223;-82
2023/07/05 18:45:58;;;;;;;2.72;0.40;;;24.30;85.90;;;;;;20926451;28;20684;-80
2023/07/05 18:56:13;;;;;;;0.65;0.40;;;24.30;80.50;;;;;;20927787;28;20586;-82
2023/07/05 19:06:17;;;;;;;1.10;0.40;;;;;;;;;;20924076;28;20210;-83
2023/07/05 19:16:21;;;;;;;2.97;0.63;;;23.90;87.30;;;;;;20930929;28;20284;-82
2023/07/05 19:26:22;;;;;;;2.05;0.60;;;;;;;;;;20931774;28;20761;-80
2023/07/05 19:36:25;;;;;;;1.15;0.50;;;;;;;;;;20920956;28;20254;-82
2023/07/05 19:46:41;;;;;;;0.95;0.60;;;;;;;;;;20925920;28;20627;-81
2023/07/05 19:56:43;;;;;;;0.88;0.50;;;;;;;;;;20927566;28;20235;-82
2023/07/05 20:06:45;;;;;;;2.33;0.52;;;;;;;;;;20915807;28;20228;-81
2023/07/05 20:16:48;;;;;;;0.85;0.60;;;23.30;91.90;;;;;;20899420;28;20227;-81
